sensor_id;sensor_type;location;lat;lon;timestamp;pressure;altitude;pressure_sealevel;temperature;humidity
72896;BME280;61036;53.224;6.554;2023-04-01T00:02:18;99219.72;;;10.60;100.00
72896;BME280;61036;53.224;6.554;2023-04-01T00:04:43;99225.72;;;10.71;100.00
72896;BME280;61036;53.224;6.554;2023-04-01T00:07:09;99219.09;;;10.66;100.00
72896;BME280;61036;53.224;6.554;2023-04-01T00:09:36;99236.41;;;10.63;100.00
72896;BME280;61036;53.224;6.554;2023-04-01T00:12:01;99224.50;;;10.92;100.00
72896;BME280;61036;53.224;6.554;2023-04-01T00:14:27;99221.69;;;10.75;100.00
72896;BME280;61036;53.224;6.554;2023-04-01T00:16:53;99220.75;;;10.67;100.00
72896;BME280;61036;53.224;6.554;2023-04-01T00:19:19;99225.84;;;10.70;100.00
72896;BME280;61036;53.224;6.554;2023-04-01T00:21:44;99224.56;;;10.56;100.00
72896;BME280;61036;53.224;6.554;2023-04-01T00:24:10;99221.78;;;10.66;100.00
72896;BME280;61036;53.224;6.554;2023-04-01T00:26:36;99227.31;;;10.64;100.00
72896;BME280;61036;53.224;6.554;2023-04-01T00:29:01;99228.13;;;10.83;100.00
72896;BME280;61036;53.224;6.554;2023-04-01T00:31:27;99221.69;;;10.75;100.00
72896;BME280;61036;53.224;6.554;2023-04-01T00:33:56;99224.66;;;10.90;100.00
72896;BME280;61036;53.224;6.554;2023-04-01T00:36:22;99220.97;;;10.73;100.00
72896;BME280;61036;53.224;6.554;2023-04-01T00:38:49;99222.69;;;10.92;100.00
72896;BME280;61036;53.224;6.554;2023-04-01T00:41:15;99225.28;;;10.84;100.00
72896;BME280;61036;53.224;6.554;2023-04-01T00:43:44;99222.03;;;10.98;100.00
72896;BME280;61036;53.224;6.554;2023-04-01T00:46:11;99229.13;;;10.99;100.00
72896;BME280;61036;53.224;6.554;2023-04-01T00:48:40;99220.34;;;10.97;100.00
72896;BME280;61036;53.224;6.554;2023-04-01T00:51:09;99219.06;;;10.84;100.00
72896;BME280;61036;53.224;6.554;2023-04-01T00:53:41;99218.97;;;10.93;100.00
72896;BME280;61036;53.224;6.554;2023-04-01T00:56:21;99227.66;;;11.05;100.00
72896;BME280;61036;53.224;6.554;2023-04-01T00:58:56;99222.41;;;11.04;100.00
72896;BME280;61036;53.224;6.554;2023-04-01T01:01:24;99222.50;;;10.94;100.00
72896;BME280;61036;53.224;6.554;2023-04-01T01:03:50;99221.75;;;10.84;100.00
72896;BME280;61036;53.224;6.554;2023-04-01T01:06:46;99219.19;;;11.00;100.00
72896;BME280;61036;53.224;6.554;2023-04-01T01:09:57;99225.91;;;10.96;100.00
72896;BME280;61036;53.224;6.554;2023-04-01T01:12:58;99224.59;;;10.82;100.00
72896;BME280;61036;53.224;6.554;2023-04-01T01:15:32;99230.66;;;11.02;100.00
72896;BME280;61036;53.224;6.554;2023-04-01T01:18:19;99230.00;;;10.82;100.00
72896;BME280;61036;53.224;6.554;2023-04-01T01:21:18;99223.13;;;10.88;100.00
72896;BME280;61036;53.224;6.554;2023-04-01T01:24:23;99231.69;;;11.01;100.00
72896;BME280;61036;53.224;6.554;2023-04-01T01:27:08;99238.06;;;11.00;100.00
72896;BME280;61036;53.224;6.554;2023-04-01T01:29:47;99239.38;;;10.96;100.00
72896;BME280;61036;53.224;6.554;2023-04-01T01:35:28;99237.16;;;10.91;100.00
72896;BME280;61036;53.224;6.554;2023-04-01T01:38:06;99244.06;;;10.94;100.00
72896;BME280;61036;53.224;6.554;2023-04-01T01:40:34;99243.69;;;10.89;100.00
72896;BME280;61036;53.224;6.554;2023-04-01T01:43:08;99235.66;;;10.97;100.00
72896;BME280;61036;53.224;6.554;2023-04-01T01:45:38;99238.22;;;10.98;100.00
72896;BME280;61036;53.224;6.554;2023-04-01T01:48:06;99239.38;;;10.96;100.00
72896;BME280;61036;53.224;6.554;2023-04-01T01:50:34;99244.00;;;10.86;100.00
72896;BME280;61036;53.224;6.554;2023-04-01T01:53:02;99241.06;;;10.97;100.00
72896;BME280;61036;53.224;6.554;2023-04-01T01:58:04;99241.16;;;10.87;100.00
72896;BME280;61036;53.224;6.554;2023-04-01T02:00:32;99236.50;;;10.71;100.00
72896;BME280;61036;53.224;6.554;2023-04-01T02:02:59;99250.03;;;10.80;100.00
72896;BME280;61036;53.224;6.554;2023-04-01T02:05:27;99249.38;;;11.04;100.00
72896;BME280;61036;53.224;6.554;2023-04-01T02:08:16;99253.47;;;11.08;100.00
72896;BME280;61036;53.224;6.554;2023-04-01T02:10:46;99250.16;;;10.96;100.00
72896;BME280;61036;53.224;6.554;2023-04-01T02:13:21;99250.72;;;10.82;100.00
72896;BME280;61036;53.224;6.554;2023-04-01T02:15:50;99262.13;;;10.75;100.00
72896;BME280;61036;53.224;6.554;2023-04-01T02:18:18;99261.44;;;10.73;100.00
72896;BME280;61036;53.224;6.554;2023-04-01T02:20:45;99270.63;;;10.81;100.00
72896;BME280;61036;53.224;6.554;2023-04-01T02:23:12;99261.72;;;10.70;100.00
72896;BME280;61036;53.224;6.554;2023-04-01T02:25:39;99267.66;;;10.92;100.00
72896;BME280;61036;53.224;6.554;2023-04-01T02:28:07;99268.75;;;10.81;100.00
72896;BME280;61036;53.224;6.554;2023-04-01T02:30:35;99265.25;;;10.89;100.00
72896;BME280;61036;53.224;6.554;2023-04-01T02:33:03;99267.75;;;10.82;100.00
72896;BME280;61036;53.224;6.554;2023-04-01T02:35:33;99273.66;;;10.86;100.00
72896;BME280;61036;53.224;6.554;2023-04-01T02:37:59;99269.78;;;10.80;100.00
72896;BME280;61036;53.224;6.554;2023-04-01T02:40:26;99268.28;;;10.68;100.00
72896;BME280;61036;53.224;6.554;2023-04-01T02:42:51;99276.94;;;10.71;100.00
72896;BME280;61036;53.224;6.554;2023-04-01T02:45:17;99279.06;;;10.68;100.00
72896;BME280;61036;53.224;6.554;2023-04-01T02:47:43;99273.84;;;10.66;100.00
72896;BME280;61036;53.224;6.554;2023-04-01T02:50:08;99287.47;;;10.83;100.00
72896;BME280;61036;53.224;6.554;2023-04-01T02:52:34;99281.09;;;10.84;100.00
72896;BME280;61036;53.224;6.554;2023-04-01T02:55:01;99283.47;;;10.69;100.00
72896;BME280;61036;53.224;6.554;2023-04-01T02:57:27;99280.25;;;10.65;100.00
72896;BME280;61036;53.224;6.554;2023-04-01T02:59:52;99285.31;;;10.68;100.00
72896;BME280;61036;53.224;6.554;2023-04-01T03:02:18;99287.00;;;10.87;100.00
72896;BME280;61036;53.224;6.554;2023-04-01T03:04:44;99292.63;;;10.94;100.00
72896;BME280;61036;53.224;6.554;2023-04-01T03:07:10;99289.63;;;10.61;100.00
72896;BME280;61036;53.224;6.554;2023-04-01T03:09:38;99295.25;;;10.86;100.00
72896;BME280;61036;53.224;6.554;2023-04-01T03:12:05;99296.03;;;10.78;100.00
72896;BME280;61036;53.224;6.554;2023-04-01T03:14:37;99292.41;;;10.69;100.00
72896;BME280;61036;53.224;6.554;2023-04-01T03:17:02;99302.50;;;10.85;100.00
72896;BME280;61036;53.224;6.554;2023-04-01T03:19:28;99299.88;;;10.58;100.00
72896;BME280;61036;53.224;6.554;2023-04-01T03:21:53;99305.66;;;10.63;100.00
72896;BME280;61036;53.224;6.554;2023-04-01T03:24:20;99312.50;;;10.57;100.00
72896;BME280;61036;53.224;6.554;2023-04-01T03:26:46;99310.50;;;10.59;100.00
72896;BME280;61036;53.224;6.554;2023-04-01T03:29:12;99304.50;;;10.65;100.00
72896;BME280;61036;53.224;6.554;2023-04-01T03:31:37;99305.72;;;10.53;100.00
72896;BME280;61036;53.224;6.554;2023-04-01T03:34:03;99308.78;;;10.58;100.00
72896;BME280;61036;53.224;6.554;2023-04-01T03:36:28;99321.19;;;10.51;100.00
72896;BME280;61036;53.224;6.554;2023-04-01T03:38:54;99319.75;;;10.57;100.00
72896;BME280;61036;53.224;6.554;2023-04-01T03:41:27;99319.50;;;10.50;100.00
72896;BME280;61036;53.224;6.554;2023-04-01T03:43:53;99322.78;;;10.44;100.00
72896;BME280;61036;53.224;6.554;2023-04-01T03:46:19;99326.13;;;10.56;100.00
72896;BME280;61036;53.224;6.554;2023-04-01T03:48:46;99328.97;;;10.54;100.00
72896;BME280;61036;53.224;6.554;2023-04-01T03:51:11;99331.44;;;10.47;100.00
72896;BME280;61036;53.224;6.554;2023-04-01T03:53:37;99330.59;;;10.65;100.00
72896;BME280;61036;53.224;6.554;2023-04-01T03:56:06;99328.22;;;10.80;100.00
72896;BME280;61036;53.224;6.554;2023-04-01T03:58:34;99335.00;;;10.66;100.00
72896;BME280;61036;53.224;6.554;2023-04-01T04:01:01;99337.53;;;10.67;100.00
72896;BME280;61036;53.224;6.554;2023-04-01T04:03:26;99333.56;;;10.71;100.00
72896;BME280;61036;53.224;6.554;2023-04-01T04:05:52;99339.56;;;10.65;100.00
72896;BME280;61036;53.224;6.554;2023-04-01T04:08:17;99344.44;;;10.52;100.00
72896;BME280;61036;53.224;6.554;2023-04-01T04:10:44;99341.56;;;10.81;100.00
72896;BME280;61036;53.224;6.554;2023-04-01T04:13:10;99346.91;;;10.45;100.00
72896;BME280;61036;53.224;6.554;2023-04-01T04:15:41;99341.94;;;10.68;100.00
72896;BME280;61036;53.224;6.554;2023-04-01T04:18:07;99350.88;;;10.69;100.00
72896;BME280;61036;53.224;6.554;2023-04-01T04:20:32;99349.09;;;10.60;100.00
72896;BME280;61036;53.224;6.554;2023-04-01T04:23:00;99353.34;;;10.62;100.00
72896;BME280;61036;53.224;6.554;2023-04-01T04:25:25;99357.81;;;10.44;100.00
72896;BME280;61036;53.224;6.554;2023-04-01T04:27:51;99362.63;;;10.68;100.00
72896;BME280;61036;53.224;6.554;2023-04-01T04:30:16;99360.31;;;10.55;100.00
72896;BME280;61036;53.224;6.554;2023-04-01T04:32:42;99369.03;;;10.67;100.00
72896;BME280;61036;53.224;6.554;2023-04-01T04:35:09;99369.22;;;10.65;100.00
72896;BME280;61036;53.224;6.554;2023-04-01T04:37:35;99370.34;;;10.63;100.00
72896;BME280;61036;53.224;6.554;2023-04-01T04:40:00;99372.50;;;10.59;100.00
72896;BME280;61036;53.224;6.554;2023-04-01T04:42:26;99379.09;;;10.47;100.00
72896;BME280;61036;53.224;6.554;2023-04-01T04:44:58;99382.47;;;10.49;100.00
72896;BME280;61036;53.224;6.554;2023-04-01T04:47:24;99381.19;;;10.53;100.00
72896;BME280;61036;53.224;6.554;2023-04-01T04:49:50;99391.91;;;10.63;100.00
72896;BME280;61036;53.224;6.554;2023-04-01T04:52:16;99396.38;;;10.54;100.00
72896;BME280;61036;53.224;6.554;2023-04-01T04:54:42;99400.59;;;10.57;100.00
72896;BME280;61036;53.224;6.554;2023-04-01T04:57:07;99398.41;;;10.70;100.00
72896;BME280;61036;53.224;6.554;2023-04-01T04:59:43;99405.25;;;10.82;100.00
72896;BME280;61036;53.224;6.554;2023-04-01T05:02:16;99397.72;;;10.86;100.00
72896;BME280;61036;53.224;6.554;2023-04-01T05:04:42;99401.91;;;10.80;100.00
72896;BME280;61036;53.224;6.554;2023-04-01T05:07:09;99408.53;;;10.58;100.00
72896;BME280;61036;53.224;6.554;2023-04-01T05:09:35;99406.09;;;10.83;100.00
72896;BME280;61036;53.224;6.554;2023-04-01T05:12:01;99418.78;;;10.55;100.00
72896;BME280;61036;53.224;6.554;2023-04-01T05:14:34;99410.03;;;10.43;100.00
72896;BME280;61036;53.224;6.554;2023-04-01T05:17:11;99416.13;;;10.72;100.00
72896;BME280;61036;53.224;6.554;2023-04-01T05:19:37;99423.38;;;10.72;100.00
72896;BME280;61036;53.224;6.554;2023-04-01T05:22:02;99424.09;;;10.64;100.00
72896;BME280;61036;53.224;6.554;2023-04-01T05:24:29;99422.41;;;10.63;100.00
72896;BME280;61036;53.224;6.554;2023-04-01T05:26:55;99428.56;;;10.83;100.00
72896;BME280;61036;53.224;6.554;2023-04-01T05:29:24;99433.38;;;10.80;100.00
72896;BME280;61036;53.224;6.554;2023-04-01T05:31:56;99431.88;;;10.77;100.00
72896;BME280;61036;53.224;6.554;2023-04-01T05:34:21;99436.34;;;10.59;100.00
72896;BME280;61036;53.224;6.554;2023-04-01T05:36:47;99446.31;;;10.48;100.00
72896;BME280;61036;53.224;6.554;2023-04-01T05:39:16;99442.91;;;10.46;100.00
72896;BME280;61036;53.224;6.554;2023-04-01T05:41:42;99448.97;;;10.58;100.00
72896;BME280;61036;53.224;6.554;2023-04-01T05:44:11;99451.97;;;10.55;100.00
72896;BME280;61036;53.224;6.554;2023-04-01T05:46:39;99456.91;;;10.60;100.00
72896;BME280;61036;53.224;6.554;2023-04-01T05:49:14;99457.34;;;10.55;100.00
72896;BME280;61036;53.224;6.554;2023-04-01T05:51:40;99463.09;;;10.42;100.00
72896;BME280;61036;53.224;6.554;2023-04-01T05:54:05;99467.47;;;10.43;100.00
72896;BME280;61036;53.224;6.554;2023-04-01T05:56:31;99472.84;;;10.53;100.00
72896;BME280;61036;53.224;6.554;2023-04-01T05:58:58;99472.06;;;10.33;100.00
72896;BME280;61036;53.224;6.554;2023-04-01T06:01:24;99476.50;;;10.52;100.00
72896;BME280;61036;53.224;6.554;2023-04-01T06:03:49;99479.44;;;10.68;100.00
72896;BME280;61036;53.224;6.554;2023-04-01T06:06:22;99482.81;;;10.70;100.00
72896;BME280;61036;53.224;6.554;2023-04-01T06:08:48;99485.78;;;10.77;100.00
72896;BME280;61036;53.224;6.554;2023-04-01T06:19:42;99501.56;;;10.72;100.00
72896;BME280;61036;53.224;6.554;2023-04-01T06:45:51;99531.47;;;11.06;100.00
72896;BME280;61036;53.224;6.554;2023-04-01T06:48:59;99534.16;;;11.52;100.00
72896;BME280;61036;53.224;6.554;2023-04-01T06:52:13;99544.28;;;11.50;100.00
72896;BME280;61036;53.224;6.554;2023-04-01T06:55:35;99545.28;;;11.66;100.00
72896;BME280;61036;53.224;6.554;2023-04-01T06:58:27;99548.84;;;11.21;100.00
72896;BME280;61036;53.224;6.554;2023-04-01T07:00:57;99551.25;;;11.52;100.00
72896;BME280;61036;53.224;6.554;2023-04-01T07:03:40;99546.06;;;11.41;100.00
72896;BME280;61036;53.224;6.554;2023-04-01T07:06:23;99556.34;;;11.28;100.00
72896;BME280;61036;53.224;6.554;2023-04-01T07:08:54;99557.72;;;11.14;100.00
72896;BME280;61036;53.224;6.554;2023-04-01T07:11:26;99562.00;;;11.34;100.00
72896;BME280;61036;53.224;6.554;2023-04-01T07:14:33;99569.19;;;11.16;100.00
72896;BME280;61036;53.224;6.554;2023-04-01T07:17:09;99569.84;;;11.28;100.00
72896;BME280;61036;53.224;6.554;2023-04-01T07:19:50;99578.59;;;11.57;100.00
72896;BME280;61036;53.224;6.554;2023-04-01T07:22:31;99580.75;;;11.54;100.00
72896;BME280;61036;53.224;6.554;2023-04-01T07:25:27;99585.03;;;11.29;100.00
72896;BME280;61036;53.224;6.554;2023-04-01T07:28:14;99588.13;;;11.79;100.00
72896;BME280;61036;53.224;6.554;2023-04-01T07:33:39;99603.25;;;11.72;100.00
72896;BME280;61036;53.224;6.554;2023-04-01T07:39:09;99609.31;;;11.56;100.00
72896;BME280;61036;53.224;6.554;2023-04-01T07:42:14;99599.53;;;11.73;100.00
72896;BME280;61036;53.224;6.554;2023-04-01T07:55:53;99623.56;;;12.12;100.00
72896;BME280;61036;53.224;6.554;2023-04-01T07:59:02;99630.63;;;11.59;100.00
72896;BME280;61036;53.224;6.554;2023-04-01T08:02:16;99635.97;;;11.41;100.00
72896;BME280;61036;53.224;6.554;2023-04-01T08:07:41;99643.50;;;11.65;100.00
72896;BME280;61036;53.224;6.554;2023-04-01T08:10:52;99648.44;;;11.70;100.00
72896;BME280;61036;53.224;6.554;2023-04-01T08:14:16;99649.75;;;12.11;100.00
72896;BME280;61036;53.224;6.554;2023-04-01T08:17:21;99655.94;;;12.40;100.00
72896;BME280;61036;53.224;6.554;2023-04-01T08:22:40;99654.78;;;12.06;100.00
72896;BME280;61036;53.224;6.554;2023-04-01T08:25:25;99661.59;;;12.28;100.00
72896;BME280;61036;53.224;6.554;2023-04-01T08:30:40;99665.81;;;11.67;100.00
72896;BME280;61036;53.224;6.554;2023-04-01T08:33:16;99669.44;;;11.76;100.00
72896;BME280;61036;53.224;6.554;2023-04-01T08:35:58;99677.56;;;12.22;100.00
72896;BME280;61036;53.224;6.554;2023-04-01T08:38:37;99684.44;;;12.16;100.00
72896;BME280;61036;53.224;6.554;2023-04-01T09:01:55;99737.31;;;11.63;100.00
72896;BME280;61036;53.224;6.554;2023-04-01T09:12:55;99760.06;;;11.61;100.00
72896;BME280;61036;53.224;6.554;2023-04-01T09:18:24;99770.00;;;11.23;100.00
72896;BME280;61036;53.224;6.554;2023-04-01T09:26:57;99771.31;;;11.56;100.00
72896;BME280;61036;53.224;6.554;2023-04-01T09:44:15;99808.22;;;10.99;100.00
72896;BME280;61036;53.224;6.554;2023-04-01T09:52:10;99824.22;;;11.30;100.00
72896;BME280;61036;53.224;6.554;2023-04-01T10:00:53;99842.63;;;10.27;100.00
72896;BME280;61036;53.224;6.554;2023-04-01T10:25:19;99880.72;;;10.53;100.00
72896;BME280;61036;53.224;6.554;2023-04-01T10:42:43;99888.00;;;10.82;100.00
72896;BME280;61036;53.224;6.554;2023-04-01T10:48:53;99904.63;;;10.87;100.00
72896;BME280;61036;53.224;6.554;2023-04-01T11:26:11;99964.63;;;10.29;100.00
72896;BME280;61036;53.224;6.554;2023-04-01T11:31:58;99969.22;;;10.48;100.00
72896;BME280;61036;53.224;6.554;2023-04-01T11:43:29;99981.75;;;10.28;100.00
72896;BME280;61036;53.224;6.554;2023-04-01T11:46:24;99988.13;;;11.08;100.00
72896;BME280;61036;53.224;6.554;2023-04-01T11:52:08;99989.56;;;11.12;100.00
72896;BME280;61036;53.224;6.554;2023-04-01T12:00:51;100017.72;;;11.29;100.00
72896;BME280;61036;53.224;6.554;2023-04-01T12:06:19;100022.91;;;10.61;100.00
72896;BME280;61036;53.224;6.554;2023-04-01T12:12:10;100036.44;;;11.11;100.00
72896;BME280;61036;53.224;6.554;2023-04-01T12:15:01;100047.81;;;10.74;100.00
72896;BME280;61036;53.224;6.554;2023-04-01T12:28:21;100060.84;;;10.69;100.00
72896;BME280;61036;53.224;6.554;2023-04-01T12:37:08;100086.56;;;10.52;100.00
72896;BME280;61036;53.224;6.554;2023-04-01T12:42:43;100095.88;;;11.00;100.00
72896;BME280;61036;53.224;6.554;2023-04-01T12:45:32;100091.00;;;11.25;100.00
72896;BME280;61036;53.224;6.554;2023-04-01T12:54:01;100104.13;;;10.26;100.00
72896;BME280;61036;53.224;6.554;2023-04-01T12:57:02;100118.78;;;11.06;100.00
72896;BME280;61036;53.224;6.554;2023-04-01T13:09:09;100140.13;;;10.25;100.00
72896;BME280;61036;53.224;6.554;2023-04-01T13:17:03;100141.94;;;10.78;100.00
72896;BME280;61036;53.224;6.554;2023-04-01T13:27:55;100179.94;;;9.89;100.00
72896;BME280;61036;53.224;6.554;2023-04-01T13:36:28;100176.00;;;10.79;100.00
72896;BME280;61036;53.224;6.554;2023-04-01T13:42:11;100188.28;;;11.13;100.00
72896;BME280;61036;53.224;6.554;2023-04-01T13:44:48;100191.78;;;10.41;100.00
72896;BME280;61036;53.224;6.554;2023-04-01T13:55:55;100213.16;;;10.96;100.00
72896;BME280;61036;53.224;6.554;2023-04-01T14:04:53;100221.88;;;11.09;100.00
72896;BME280;61036;53.224;6.554;2023-04-01T14:13:30;100248.13;;;10.44;100.00
72896;BME280;61036;53.224;6.554;2023-04-01T14:19:27;100266.94;;;10.01;100.00
72896;BME280;61036;53.224;6.554;2023-04-01T14:24:52;100273.22;;;9.56;100.00
72896;BME280;61036;53.224;6.554;2023-04-01T14:30:18;100278.50;;;9.47;100.00
72896;BME280;61036;53.224;6.554;2023-04-01T14:32:57;100288.88;;;9.62;100.00
72896;BME280;61036;53.224;6.554;2023-04-01T14:39:22;100305.91;;;9.85;100.00
72896;BME280;61036;53.224;6.554;2023-04-01T14:42:23;100297.66;;;9.20;100.00
72896;BME280;61036;53.224;6.554;2023-04-01T14:47:47;100327.84;;;9.81;100.00
72896;BME280;61036;53.224;6.554;2023-04-01T14:50:17;100332.53;;;9.32;100.00
72896;BME280;61036;53.224;6.554;2023-04-01T15:03:25;100350.56;;;9.54;100.00
72896;BME280;61036;53.224;6.554;2023-04-01T15:05:59;100362.28;;;9.53;100.00
72896;BME280;61036;53.224;6.554;2023-04-01T15:08:36;100363.50;;;9.27;100.00
72896;BME280;61036;53.224;6.554;2023-04-01T15:30:51;100417.97;;;8.82;100.00
72896;BME280;61036;53.224;6.554;2023-04-01T15:36:10;100424.06;;;9.08;100.00
72896;BME280;61036;53.224;6.554;2023-04-01T15:38:52;100430.34;;;8.72;100.00
72896;BME280;61036;53.224;6.554;2023-04-01T15:46:56;100467.09;;;8.84;100.00
72896;BME280;61036;53.224;6.554;2023-04-01T16:00:01;100494.09;;;8.46;100.00
72896;BME280;61036;53.224;6.554;2023-04-01T16:02:48;100499.06;;;8.76;100.00
72896;BME280;61036;53.224;6.554;2023-04-01T16:13:23;100515.03;;;8.41;100.00
72896;BME280;61036;53.224;6.554;2023-04-01T16:16:08;100532.75;;;8.31;100.00
72896;BME280;61036;53.224;6.554;2023-04-01T16:18:44;100518.03;;;8.23;100.00
72896;BME280;61036;53.224;6.554;2023-04-01T16:21:36;100531.66;;;8.33;100.00
72896;BME280;61036;53.224;6.554;2023-04-01T16:24:17;100538.75;;;7.96;100.00
72896;BME280;61036;53.224;6.554;2023-04-01T16:26:50;100549.69;;;7.93;100.00
72896;BME280;61036;53.224;6.554;2023-04-01T16:29:36;100545.22;;;8.32;100.00
72896;BME280;61036;53.224;6.554;2023-04-01T16:32:41;100564.25;;;8.29;100.00
72896;BME280;61036;53.224;6.554;2023-04-01T16:43:35;100594.19;;;7.70;100.00
72896;BME280;61036;53.224;6.554;2023-04-01T16:51:57;100608.50;;;8.10;100.00
72896;BME280;61036;53.224;6.554;2023-04-01T16:59:43;100626.47;;;7.83;100.00
72896;BME280;61036;53.224;6.554;2023-04-01T17:02:20;100626.69;;;7.79;100.00
72896;BME280;61036;53.224;6.554;2023-04-01T17:04:55;100628.28;;;7.82;100.00
72896;BME280;61036;53.224;6.554;2023-04-01T17:15:41;100661.84;;;7.48;100.00
72896;BME280;61036;53.224;6.554;2023-04-01T17:26:47;100688.41;;;7.52;100.00
72896;BME280;61036;53.224;6.554;2023-04-01T17:32:13;100692.41;;;7.45;100.00
72896;BME280;61036;53.224;6.554;2023-04-01T17:35:00;100705.75;;;7.88;100.00
72896;BME280;61036;53.224;6.554;2023-04-01T17:49:39;100734.84;;;7.67;100.00
72896;BME280;61036;53.224;6.554;2023-04-01T17:52:30;100733.34;;;7.20;100.00
72896;BME280;61036;53.224;6.554;2023-04-01T17:55:15;100755.22;;;7.28;100.00
72896;BME280;61036;53.224;6.554;2023-04-01T18:06:41;100770.50;;;7.12;100.00
72896;BME280;61036;53.224;6.554;2023-04-01T18:09:39;100789.59;;;7.36;100.00
72896;BME280;61036;53.224;6.554;2023-04-01T18:12:40;100799.66;;;7.47;100.00
72896;BME280;61036;53.224;6.554;2023-04-01T18:20:36;100809.66;;;7.00;100.00
72896;BME280;61036;53.224;6.554;2023-04-01T18:23:27;100826.00;;;7.26;100.00
72896;BME280;61036;53.224;6.554;2023-04-01T18:26:04;100832.88;;;6.71;100.00
72896;BME280;61036;53.224;6.554;2023-04-01T18:31:07;100847.69;;;6.77;100.00
72896;BME280;61036;53.224;6.554;2023-04-01T18:33:54;100849.50;;;6.92;100.00
72896;BME280;61036;53.224;6.554;2023-04-01T18:38:57;100858.44;;;7.07;100.00
72896;BME280;61036;53.224;6.554;2023-04-01T18:41:47;100879.53;;;6.83;100.00
72896;BME280;61036;53.224;6.554;2023-04-01T18:44:47;100889.91;;;7.03;100.00
72896;BME280;61036;53.224;6.554;2023-04-01T18:49:59;100894.84;;;6.65;100.00
72896;BME280;61036;53.224;6.554;2023-04-01T18:52:36;100895.50;;;6.84;100.00
72896;BME280;61036;53.224;6.554;2023-04-01T18:57:47;100912.19;;;6.74;100.00
72896;BME280;61036;53.224;6.554;2023-04-01T19:00:20;100925.00;;;6.53;100.00
72896;BME280;61036;53.224;6.554;2023-04-01T19:03:28;100927.25;;;6.76;100.00
72896;BME280;61036;53.224;6.554;2023-04-01T19:06:00;100933.06;;;6.69;100.00
72896;BME280;61036;53.224;6.554;2023-04-01T19:08:34;100937.91;;;6.62;100.00
72896;BME280;61036;53.224;6.554;2023-04-01T19:19:53;100960.88;;;6.66;100.00
72896;BME280;61036;53.224;6.554;2023-04-01T19:22:40;100984.72;;;6.23;100.00
72896;BME280;61036;53.224;6.554;2023-04-01T19:25:29;100989.66;;;6.47;100.00
72896;BME280;61036;53.224;6.554;2023-04-01T19:28:20;101005.00;;;6.27;100.00
72896;BME280;61036;53.224;6.554;2023-04-01T19:30:54;100997.19;;;6.07;100.00
72896;BME280;61036;53.224;6.554;2023-04-01T19:38:40;101010.56;;;5.89;100.00
72896;BME280;61036;53.224;6.554;2023-04-01T19:43:38;101019.38;;;6.26;100.00
72896;BME280;61036;53.224;6.554;2023-04-01T19:46:19;101030.56;;;6.50;100.00
72896;BME280;61036;53.224;6.554;2023-04-01T19:57:14;101056.03;;;6.08;100.00
72896;BME280;61036;53.224;6.554;2023-04-01T20:00:22;101063.25;;;6.06;100.00
72896;BME280;61036;53.224;6.554;2023-04-01T20:02:55;101063.66;;;5.81;100.00
72896;BME280;61036;53.224;6.554;2023-04-01T20:08:36;101079.97;;;6.45;100.00
72896;BME280;61036;53.224;6.554;2023-04-01T20:11:18;101079.25;;;6.08;100.00
72896;BME280;61036;53.224;6.554;2023-04-01T20:16:16;101097.41;;;6.18;100.00
72896;BME280;61036;53.224;6.554;2023-04-01T20:18:47;101098.69;;;6.11;100.00
72896;BME280;61036;53.224;6.554;2023-04-01T20:23:56;101111.72;;;5.83;100.00
72896;BME280;61036;53.224;6.554;2023-04-01T20:26:32;101117.16;;;5.81;100.00
72896;BME280;61036;53.224;6.554;2023-04-01T20:32:14;101130.81;;;5.94;100.00
72896;BME280;61036;53.224;6.554;2023-04-01T20:35:13;101140.06;;;5.69;100.00
72896;BME280;61036;53.224;6.554;2023-04-01T20:41:11;101139.94;;;5.90;100.00
72896;BME280;61036;53.224;6.554;2023-04-01T20:46:42;101149.72;;;6.08;100.00
72896;BME280;61036;53.224;6.554;2023-04-01T20:55:07;101170.59;;;5.83;100.00
72896;BME280;61036;53.224;6.554;2023-04-01T20:57:46;101158.38;;;5.96;100.00
72896;BME280;61036;53.224;6.554;2023-04-01T21:00:52;101171.28;;;6.23;100.00
72896;BME280;61036;53.224;6.554;2023-04-01T21:03:40;101163.03;;;5.73;100.00
72896;BME280;61036;53.224;6.554;2023-04-01T21:06:18;101186.41;;;5.70;100.00
72896;BME280;61036;53.224;6.554;2023-04-01T21:08:52;101179.69;;;5.61;100.00
72896;BME280;61036;53.224;6.554;2023-04-01T21:14:33;101195.44;;;5.67;100.00
72896;BME280;61036;53.224;6.554;2023-04-01T21:17:08;101197.75;;;5.94;100.00
72896;BME280;61036;53.224;6.554;2023-04-01T21:33:44;101239.81;;;5.90;100.00
72896;BME280;61036;53.224;6.554;2023-04-01T21:36:30;101224.50;;;5.56;100.00
72896;BME280;61036;53.224;6.554;2023-04-01T21:44:38;101255.63;;;5.59;100.00
72896;BME280;61036;53.224;6.554;2023-04-01T22:06:15;101310.63;;;5.64;100.00
72896;BME280;61036;53.224;6.554;2023-04-01T22:09:03;101312.22;;;5.68;100.00
72896;BME280;61036;53.224;6.554;2023-04-01T22:11:43;101318.44;;;5.50;100.00
72896;BME280;61036;53.224;6.554;2023-04-01T22:16:57;101328.38;;;5.67;100.00
72896;BME280;61036;53.224;6.554;2023-04-01T22:22:23;101337.91;;;5.72;100.00
72896;BME280;61036;53.224;6.554;2023-04-01T22:25:01;101347.50;;;5.39;100.00
72896;BME280;61036;53.224;6.554;2023-04-01T22:32:51;101361.66;;;5.41;100.00
72896;BME280;61036;53.224;6.554;2023-04-01T22:38:23;101367.94;;;5.40;100.00
72896;BME280;61036;53.224;6.554;2023-04-01T22:41:05;101362.78;;;5.35;100.00
72896;BME280;61036;53.224;6.554;2023-04-01T22:43:40;101377.09;;;5.55;100.00
72896;BME280;61036;53.224;6.554;2023-04-01T22:46:24;101373.59;;;5.53;100.00
72896;BME280;61036;53.224;6.554;2023-04-01T22:57:03;101400.31;;;5.13;100.00
72896;BME280;61036;53.224;6.554;2023-04-01T22:59:54;101405.53;;;5.37;100.00
72896;BME280;61036;53.224;6.554;2023-04-01T23:02:29;101412.81;;;5.13;100.00